Aérodrome :
LOGIN :

S'inscrire | Disclaimer

   EN    FR    IT 

 










Légende :    VFR   VFR Marginal   IFR   IFR Intensif   IFR Très Intensif
Visi : 
Plafond : 
>= 8 km
>= 3000ft
5 à 8 km
1000 à 3000 ft
1500m à 5 km
500 à 1000 ft
800 à 1500m
200 à 500 ft
< 800m
< 200 ft
Symboles :   Orages  Brouillard  Fortes neiges  Fortes précipitations  Vent > 20 kt
SIGMETs :   Divers  Orages  Givrage  Turbulence  Onde Orograph.  Cendres Volcan.







- Altitude de l'aérodrome : 19 ft
- Code IATA : DJE


DTTJ - Djerba Zarzis

DERNIER METAR :
  • 140330Z 22003KT 170V230 5000 NSC 13/13 Q1024 NOSIG

METARs EXPIRÉS :
  • 140300Z 22003KT 5000 NSC 13/12 Q1024 NOSIG
  • 140230Z 21002KT 6000 NSC 13/12 Q1024 NOSIG
  • 140200Z 21003KT 6000 NSC 14/13 Q1024 NOSIG
  • 140130Z 21003KT 6000 NSC 14/13 Q1025 NOSIG

TAF TAF DTTJ
Valide du 14 à 00h jusqu'au 15 à 00h UTC


132300Z 1400/1424 18010KT CAVOK
BECMG 1418/1420 23015KT
Pas de NOTAMs connus pour ce terrain.



MET'MAP, la Météo Aéronautique d'un coup d'oeil ! - Copyright ORBIFLY Décembre 2007 - Disclaimer

ORBIFLY MET'MAP TEAM :

Programmation & Développement : Alexandra Zaïnal
Conception & Développement : Baudouin d'Aumeries
Co-Programmation & Développement : Marc-Olivier Méhu
Soutien technique & logistique : Manuel Goepfert

Contact : metmap@orbifly.com




SOURCES & CREDITS :

   NOAA